Time;durP1;ratioP1;P1;durP2;ratioP2;P2;SDS_P1;SDS_P2;PMS_P1;PMS_P2;Temp;Humidity;BMP_temperature;BMP_pressure;BME280_temperature;BME280_humidity;BME280_pressure;Samples;Min_cycle;Max_cycle;Signal;HPM_P1;HPM_P2
2022/04/08 00:00:51;;;;;;;3.60;2.10;;;;;21.20;98493.00;;;;2086881;28;20212;-46
2022/04/08 00:01:51;;;;;;;4.10;1.97;;;;;21.20;98487.00;;;;2087089;28;20232;-47
2022/04/08 00:02:53;;;;;;;3.73;1.90;;;;;21.10;98488.00;;;;2087117;28;20216;-46
2022/04/08 00:03:53;;;;;;;3.40;2.05;;;;;21.20;98485.00;;;;2086964;28;20212;-46
2022/04/08 00:04:55;;;;;;;3.33;2.23;;;;;21.20;98499.00;;;;2086796;28;20681;-46
2022/04/08 00:05:57;;;;;;;2.88;1.67;;;;;21.10;98498.00;;;;2085996;28;20447;-46
2022/04/08 00:06:58;;;;;;;4.50;2.17;;;;;21.10;98493.00;;;;2087100;28;20213;-45
2022/04/08 00:07:58;;;;;;;2.17;1.50;;;;;21.20;98507.00;;;;2086773;28;20212;-47
2022/04/08 00:08:59;;;;;;;2.77;1.90;;;;;21.20;98505.00;;;;2086959;28;20223;-46
2022/04/08 00:09:59;;;;;;;2.20;1.70;;;;;21.20;98498.00;;;;2086705;28;20719;-46
2022/04/08 00:10:59;;;;;;;2.60;1.60;;;;;21.20;98501.00;;;;2086844;28;20221;-46
2022/04/08 00:12:00;;;;;;;3.23;1.60;;;;;21.10;98499.00;;;;2084965;28;20308;-46
2022/04/08 00:13:00;;;;;;;3.77;1.90;;;;;21.10;98500.00;;;;2086892;28;20213;-47
2022/04/08 00:14:01;;;;;;;2.87;1.60;;;;;21.20;98508.00;;;;2087071;28;20688;-47
2022/04/08 00:15:01;;;;;;;2.40;1.33;;;;;21.10;98498.00;;;;2086787;28;20725;-47
2022/04/08 00:16:01;;;;;;;2.33;1.50;;;;;21.10;98510.00;;;;2085937;28;20232;-46
2022/04/08 00:17:02;;;;;;;2.00;1.37;;;;;21.10;98512.00;;;;2086804;28;20219;-46
2022/04/08 00:18:03;;;;;;;2.75;1.58;;;;;21.10;98511.00;;;;2078817;28;20271;-46
2022/04/08 00:19:04;;;;;;;2.30;1.38;;;;;21.10;98523.00;;;;2078728;28;20209;-46
2022/04/08 00:20:05;;;;;;;4.07;1.53;;;;;21.10;98502.00;;;;2078580;28;20244;-46
2022/04/08 00:21:05;;;;;;;3.37;1.80;;;;;21.10;98511.00;;;;2078541;28;20289;-46
2022/04/08 00:22:05;;;;;;;3.13;1.80;;;;;21.10;98515.00;;;;2078688;28;20213;-47
2022/04/08 00:23:06;;;;;;;3.37;1.60;;;;;21.10;98515.00;;;;2078861;28;20213;-46
2022/04/08 00:24:07;;;;;;;5.40;1.77;;;;;21.10;98517.00;;;;2078678;28;20237;-46
2022/04/08 00:25:08;;;;;;;3.20;1.70;;;;;21.10;98519.00;;;;2078545;28;20205;-46
2022/04/08 00:26:09;;;;;;;3.05;1.80;;;;;21.10;98527.00;;;;2077643;28;20460;-46
2022/04/08 00:27:09;;;;;;;2.70;1.83;;;;;21.10;98540.00;;;;2078642;28;20216;-46
2022/04/08 00:28:10;;;;;;;3.13;1.63;;;;;21.10;98531.00;;;;2077947;28;20906;-46
2022/04/08 00:29:10;;;;;;;4.13;1.57;;;;;21.10;98538.00;;;;2078671;28;20206;-46
2022/04/08 00:30:11;;;;;;;3.20;1.60;;;;;21.10;98536.00;;;;2078512;28;20276;-46
2022/04/08 00:31:11;;;;;;;2.87;1.53;;;;;21.10;98529.00;;;;2078654;28;20209;-47
2022/04/08 00:32:12;;;;;;;2.33;1.33;;;;;21.10;98542.00;;;;2078601;28;20213;-47
2022/04/08 00:33:12;;;;;;;3.50;1.70;;;;;21.10;98542.00;;;;2078787;28;20491;-47
2022/04/08 00:34:12;;;;;;;2.80;1.17;;;;;21.10;98531.00;;;;2078598;28;20284;-46
2022/04/08 00:35:13;;;;;;;3.30;1.53;;;;;21.10;98557.00;;;;2078733;28;20206;-47
2022/04/08 00:36:13;;;;;;;2.40;1.80;;;;;21.10;98550.00;;;;2075450;28;20225;-46
2022/04/08 00:37:14;;;;;;;3.30;1.30;;;;;21.10;98556.00;;;;2078189;28;20210;-46
2022/04/08 00:38:14;;;;;;;2.67;1.50;;;;;21.10;98560.00;;;;2078667;28;20690;-46
2022/04/08 00:39:14;;;;;;;2.07;1.43;;;;;21.10;98551.00;;;;2078344;28;20705;-46
2022/04/08 00:40:14;;;;;;;3.43;1.80;;;;;21.10;98554.00;;;;2078615;28;20229;-47
2022/04/08 00:41:15;;;;;;;3.10;1.20;;;;;21.10;98560.00;;;;2078627;28;20209;-47
2022/04/08 00:42:15;;;;;;;3.17;1.50;;;;;21.00;98574.00;;;;2082251;28;20216;-46
2022/04/08 00:43:17;;;;;;;2.77;1.50;;;;;21.00;98570.00;;;;2081614;28;20249;-46
2022/04/08 00:44:17;;;;;;;3.53;1.58;;;;;21.10;98572.00;;;;2086340;28;20894;-47
2022/04/08 00:45:17;;;;;;;3.40;1.60;;;;;21.00;98576.00;;;;2086503;28;20239;-46
2022/04/08 00:46:18;;;;;;;2.40;1.17;;;;;21.00;98565.00;;;;2085910;28;20209;-46
2022/04/08 00:47:18;;;;;;;2.10;1.37;;;;;21.10;98571.00;;;;2086203;28;20213;-47
2022/04/08 00:48:18;;;;;;;3.30;1.50;;;;;21.10;98558.00;;;;2086441;28;20212;-46
2022/04/08 00:49:19;;;;;;;4.30;1.53;;;;;21.10;98575.00;;;;2086667;28;20384;-46
2022/04/08 00:50:22;;;;;;;2.10;1.50;;;;;21.10;98573.00;;;;2083856;28;20224;-46
2022/04/08 00:51:22;;;;;;;4.18;1.38;;;;;21.00;98577.00;;;;2084928;28;20244;-46
2022/04/08 00:52:22;;;;;;;2.73;1.60;;;;;21.00;98576.00;;;;2085829;28;20213;-46
2022/04/08 00:53:23;;;;;;;3.20;1.37;;;;;21.00;98594.00;;;;2085735;28;20215;-46
2022/04/08 00:54:23;;;;;;;2.97;1.40;;;;;21.00;98593.00;;;;2076808;28;20325;-46
2022/04/08 00:55:23;;;;;;;3.90;1.60;;;;;21.00;98595.00;;;;2068795;28;20297;-47
2022/04/08 00:56:23;;;;;;;3.37;1.50;;;;;21.00;98587.00;;;;2085654;28;20213;-46
2022/04/08 00:57:24;;;;;;;2.07;1.47;;;;;21.00;98586.00;;;;2085821;28;20215;-46
2022/04/08 00:58:25;;;;;;;2.80;1.27;;;;;21.00;98579.00;;;;2085762;28;20217;-46
2022/04/08 00:59:25;;;;;;;2.00;1.20;;;;;21.00;98585.00;;;;2085601;28;20319;-46
2022/04/08 01:00:26;;;;;;;2.30;1.20;;;;;21.00;98599.00;;;;2085954;28;20212;-46
2022/04/08 01:01:26;;;;;;;3.73;1.63;;;;;21.00;98594.00;;;;2085136;28;20220;-46
2022/04/08 01:02:28;;;;;;;2.30;1.33;;;;;21.00;98596.00;;;;2086190;28;20220;-46
2022/04/08 01:03:28;;;;;;;3.13;1.38;;;;;21.00;98590.00;;;;2081720;28;20430;-46
2022/04/08 01:04:28;;;;;;;2.10;1.23;;;;;21.00;98593.00;;;;2082613;28;20288;-46
2022/04/08 01:05:29;;;;;;;2.30;1.00;;;;;21.00;98594.00;;;;2085064;28;20665;-46
2022/04/08 01:06:29;;;;;;;2.43;1.20;;;;;21.00;98594.00;;;;2085684;28;20752;-46
2022/04/08 01:07:30;;;;;;;2.40;1.40;;;;;21.00;98586.00;;;;2086241;28;20227;-46
2022/04/08 01:08:31;;;;;;;3.42;1.45;;;;;21.00;98594.00;;;;2085667;28;20221;-46
2022/04/08 01:09:31;;;;;;;4.80;1.60;;;;;21.00;98595.00;;;;2069397;28;20284;-46
2022/04/08 01:10:31;;;;;;;3.13;1.50;;;;;21.00;98601.00;;;;2077135;28;20232;-47
2022/04/08 01:11:32;;;;;;;2.00;1.10;;;;;21.00;98597.00;;;;2084715;28;20247;-46
2022/04/08 01:12:32;;;;;;;2.40;1.17;;;;;21.00;98605.00;;;;2084424;28;20215;-46
2022/04/08 01:13:33;;;;;;;2.37;1.53;;;;;21.00;98600.00;;;;2086003;28;20212;-46
2022/04/08 01:14:34;;;;;;;2.10;1.27;;;;;21.00;98614.00;;;;2085070;28;20246;-46
2022/04/08 01:15:34;;;;;;;2.10;1.13;;;;;21.00;98609.00;;;;2076144;28;20227;-46
2022/04/08 01:16:34;;;;;;;1.70;1.23;;;;;21.00;98619.00;;;;2085143;28;20212;-46
2022/04/08 01:17:35;;;;;;;2.40;1.43;;;;;21.00;98611.00;;;;2085921;28;20240;-46
2022/04/08 01:18:35;;;;;;;2.40;1.10;;;;;21.00;98618.00;;;;2085645;28;20224;-46
2022/04/08 01:19:36;;;;;;;2.47;1.20;;;;;20.90;98620.00;;;;2085975;28;20240;-46
2022/04/08 01:20:36;;;;;;;2.37;1.37;;;;;20.90;98628.00;;;;2085778;28;20570;-46
2022/04/08 01:21:36;;;;;;;2.63;1.50;;;;;20.90;98628.00;;;;2084370;28;20579;-46
2022/04/08 01:22:36;;;;;;;2.73;1.20;;;;;21.00;98629.00;;;;2077534;28;20682;-46
2022/04/08 01:23:37;;;;;;;2.50;1.20;;;;;21.00;98633.00;;;;2080101;28;20577;-46
2022/04/08 01:24:37;;;;;;;2.70;1.17;;;;;20.90;98630.00;;;;2078493;28;20900;-46
2022/04/08 01:25:38;;;;;;;3.33;1.60;;;;;20.90;98626.00;;;;2060967;28;20218;-46
2022/04/08 01:26:39;;;;;;;2.07;1.10;;;;;20.90;98645.00;;;;2068858;28;20234;-47
2022/04/08 01:27:39;;;;;;;2.47;1.73;;;;;20.90;98643.00;;;;2077674;28;20271;-46
2022/04/08 01:28:40;;;;;;;2.53;1.30;;;;;20.90;98634.00;;;;2077322;28;20453;-51
2022/04/08 01:29:40;;;;;;;2.50;1.20;;;;;20.90;98633.00;;;;2077220;28;20218;-49
2022/04/08 01:30:40;;;;;;;2.97;1.40;;;;;20.90;98642.00;;;;2077096;28;20217;-48
2022/04/08 01:31:44;;;;;;;2.67;1.40;;;;;20.90;98640.00;;;;2078107;28;20233;-47
2022/04/08 01:32:45;;;;;;;2.15;1.10;;;;;20.90;98644.00;;;;2077520;28;20201;-46
2022/04/08 01:33:45;;;;;;;2.07;1.20;;;;;20.90;98638.00;;;;2077727;28;20644;-46
2022/04/08 01:34:48;;;;;;;2.43;1.20;;;;;20.90;98636.00;;;;2077951;28;20218;-46
2022/04/08 01:35:49;;;;;;;2.70;1.23;;;;;20.90;98641.00;;;;2077210;28;20209;-46
2022/04/08 01:36:49;;;;;;;2.53;1.30;;;;;20.90;98646.00;;;;2077360;28;20678;-47
2022/04/08 01:37:49;;;;;;;2.83;1.50;;;;;20.90;98645.00;;;;2077379;28;20555;-46
2022/04/08 01:38:50;;;;;;;2.47;1.30;;;;;20.90;98665.00;;;;2077859;28;20684;-46
2022/04/08 01:39:50;;;;;;;3.57;1.20;;;;;20.90;98657.00;;;;2077734;28;20206;-46
2022/04/08 01:40:50;;;;;;;2.73;1.27;;;;;20.90;98666.00;;;;2077958;28;20213;-46
2022/04/08 01:41:51;;;;;;;3.40;1.10;;;;;20.90;98663.00;;;;2078042;28;20211;-47
2022/04/08 01:42:51;;;;;;;2.57;1.33;;;;;20.90;98673.00;;;;2077785;28;20233;-46
2022/04/08 01:43:51;;;;;;;3.73;1.30;;;;;20.90;98658.00;;;;2077617;28;20214;-46
2022/04/08 01:44:52;;;;;;;3.17;1.23;;;;;20.90;98671.00;;;;2077999;28;20209;-46
2022/04/08 01:45:53;;;;;;;2.63;1.27;;;;;20.90;98655.00;;;;2076704;28;20212;-46
2022/04/08 01:46:53;;;;;;;2.60;1.30;;;;;20.90;98666.00;;;;2077634;28;20471;-46
2022/04/08 01:47:53;;;;;;;2.23;1.10;;;;;20.90;98661.00;;;;2077955;28;20206;-46
2022/04/08 01:48:54;;;;;;;1.40;1.03;;;;;20.90;98658.00;;;;2078407;28;20320;-48
2022/04/08 01:49:55;;;;;;;2.13;1.10;;;;;20.90;98672.00;;;;2079372;28;20668;-46
2022/04/08 01:50:55;;;;;;;2.60;1.20;;;;;20.90;98670.00;;;;2079247;28;20229;-46
2022/04/08 01:51:55;;;;;;;2.30;1.23;;;;;20.90;98667.00;;;;2079114;28;20643;-46
2022/04/08 01:52:56;;;;;;;2.33;1.50;;;;;20.90;98675.00;;;;2078175;28;20632;-46
2022/04/08 01:53:56;;;;;;;2.60;1.20;;;;;20.90;98662.00;;;;2079364;28;20218;-46
2022/04/08 01:54:57;;;;;;;2.80;1.10;;;;;20.90;98668.00;;;;2079186;28;20322;-46
2022/04/08 01:55:57;;;;;;;3.13;1.30;;;;;20.80;98655.00;;;;2078817;28;20218;-46
2022/04/08 01:56:57;;;;;;;2.80;1.37;;;;;20.90;98660.00;;;;2079115;28;20224;-46
2022/04/08 01:57:58;;;;;;;2.73;1.10;;;;;20.90;98667.00;;;;2078729;28;20221;-46
2022/04/08 01:58:58;;;;;;;2.70;1.20;;;;;20.90;98673.00;;;;2079238;28;20249;-47
2022/04/08 01:59:58;;;;;;;2.33;1.20;;;;;20.90;98661.00;;;;2079423;28;20221;-46
2022/04/08 02:01:01;;;;;;;2.47;1.10;;;;;20.80;98665.00;;;;2079350;28;20221;-46
2022/04/08 02:02:02;;;;;;;3.22;1.33;;;;;20.80;98674.00;;;;2088080;28;20216;-46
2022/04/08 02:03:02;;;;;;;2.73;1.20;;;;;20.80;98671.00;;;;2088058;28;20217;-46
2022/04/08 02:04:04;;;;;;;2.67;1.27;;;;;20.80;98680.00;;;;2088220;28;20451;-46
2022/04/08 02:05:04;;;;;;;7.57;1.30;;;;;20.80;98681.00;;;;2087959;28;20585;-46
2022/04/08 02:06:05;;;;;;;2.60;1.23;;;;;20.80;98680.00;;;;2086998;28;20232;-46
2022/04/08 02:07:06;;;;;;;2.30;1.07;;;;;20.80;98686.00;;;;2087885;28;20228;-46
2022/04/08 02:08:06;;;;;;;2.42;1.20;;;;;20.80;98689.00;;;;2088144;28;20684;-46
2022/04/08 02:09:11;;;;;;;2.50;1.23;;;;;20.80;98688.00;;;;2086395;28;20219;-48
2022/04/08 02:10:12;;;;;;;2.22;1.02;;;;;20.80;98687.00;;;;2086147;28;20652;-46
2022/04/08 02:11:12;;;;;;;4.50;1.30;;;;;20.80;98700.00;;;;2087298;28;20220;-46
2022/04/08 02:12:12;;;;;;;2.70;1.27;;;;;20.80;98689.00;;;;2087988;28;20232;-46
2022/04/08 02:13:13;;;;;;;2.93;1.03;;;;;20.80;98699.00;;;;2087930;28;20270;-46
2022/04/08 02:14:13;;;;;;;3.13;1.10;;;;;20.80;98690.00;;;;2087603;28;20688;-46
2022/04/08 02:15:13;;;;;;;3.30;1.33;;;;;20.80;98687.00;;;;2088052;28;20677;-46
2022/04/08 02:16:14;;;;;;;3.23;1.13;;;;;20.80;98690.00;;;;2087215;28;20724;-46
2022/04/08 02:17:14;;;;;;;2.67;1.30;;;;;20.80;98697.00;;;;2087790;28;20674;-46
2022/04/08 02:18:14;;;;;;;4.33;1.43;;;;;20.80;98704.00;;;;2088011;28;20289;-46
2022/04/08 02:19:15;;;;;;;2.43;1.10;;;;;20.80;98701.00;;;;2087844;28;20213;-46
2022/04/08 02:20:15;;;;;;;2.33;1.10;;;;;20.80;98698.00;;;;2087749;28;20220;-46
2022/04/08 02:21:19;;;;;;;3.20;1.40;;;;;20.80;98697.00;;;;2087882;28;20224;-46
2022/04/08 02:22:20;;;;;;;3.17;1.08;;;;;20.80;98704.00;;;;2087367;28;20212;-47
2022/04/08 02:23:20;;;;;;;1.80;1.20;;;;;20.80;98714.00;;;;2087351;28;20709;-47
2022/04/08 02:24:20;;;;;;;3.37;1.20;;;;;20.80;98714.00;;;;2087177;28;20243;-47
2022/04/08 02:25:21;;;;;;;2.60;1.40;;;;;20.80;98711.00;;;;2086530;28;20263;-46
2022/04/08 02:26:21;;;;;;;2.93;1.47;;;;;20.80;98715.00;;;;2078639;28;20302;-46
2022/04/08 02:27:23;;;;;;;3.20;1.40;;;;;20.80;98716.00;;;;2086925;28;20288;-46
2022/04/08 02:28:23;;;;;;;2.33;1.05;;;;;20.80;98717.00;;;;2087766;28;20271;-46
2022/04/08 02:29:23;;;;;;;3.80;1.27;;;;;20.80;98721.00;;;;2087891;28;20269;-46
2022/04/08 02:30:24;;;;;;;2.47;1.10;;;;;20.70;98712.00;;;;2079725;28;20214;-46
2022/04/08 02:31:24;;;;;;;3.63;1.40;;;;;20.70;98727.00;;;;2079210;28;20225;-46
2022/04/08 02:32:25;;;;;;;2.20;0.97;;;;;20.80;98725.00;;;;2079699;28;20206;-46
2022/04/08 02:33:25;;;;;;;2.33;1.20;;;;;20.80;98723.00;;;;2079710;28;20267;-46
2022/04/08 02:34:25;;;;;;;1.70;0.80;;;;;20.80;98716.00;;;;2079005;28;20217;-46
2022/04/08 02:35:26;;;;;;;2.60;1.13;;;;;20.80;98723.00;;;;2078628;28;20248;-46
2022/04/08 02:36:26;;;;;;;3.47;1.10;;;;;20.80;98736.00;;;;2079437;28;20244;-46
2022/04/08 02:37:26;;;;;;;2.90;1.63;;;;;20.70;98732.00;;;;2079304;28;20214;-46
2022/04/08 02:38:27;;;;;;;2.80;1.23;;;;;20.70;98734.00;;;;2079589;28;20236;-46
2022/04/08 02:39:27;;;;;;;1.90;1.10;;;;;20.70;98733.00;;;;2079671;28;20219;-46
2022/04/08 02:40:27;;;;;;;5.20;1.40;;;;;20.70;98733.00;;;;2079689;28;21125;-47
2022/04/08 02:41:28;;;;;;;2.73;1.23;;;;;20.70;98735.00;;;;2079646;28;20256;-46
2022/04/08 02:42:31;;;;;;;4.07;1.37;;;;;20.70;98739.00;;;;2083406;28;20213;-46
2022/04/08 02:43:31;;;;;;;3.72;1.40;;;;;20.70;98736.00;;;;2087417;28;20299;-46
2022/04/08 02:44:32;;;;;;;3.67;1.40;;;;;20.70;98742.00;;;;2087247;28;20201;-47
2022/04/08 02:45:32;;;;;;;2.80;1.20;;;;;20.70;98739.00;;;;2086602;28;20284;-46
2022/04/08 02:46:32;;;;;;;3.60;1.23;;;;;20.70;98741.00;;;;2087237;28;20292;-47
2022/04/08 02:47:39;;;;;;;2.23;0.90;;;;;20.70;98743.00;;;;2086734;28;20205;-46
2022/04/08 02:48:40;;;;;;;4.18;1.52;;;;;20.70;98741.00;;;;2085604;28;20219;-46
2022/04/08 02:49:40;;;;;;;4.10;1.50;;;;;20.70;98738.00;;;;2086725;28;20225;-46
2022/04/08 02:50:41;;;;;;;3.87;1.77;;;;;20.70;98741.00;;;;2087456;28;20221;-46
2022/04/08 02:51:41;;;;;;;3.83;1.70;;;;;20.70;98745.00;;;;2087640;28;20236;-46
2022/04/08 02:52:42;;;;;;;3.50;1.60;;;;;20.70;98735.00;;;;2087815;28;20220;-46
2022/04/08 02:53:42;;;;;;;5.30;1.30;;;;;20.70;98740.00;;;;2087906;28;20249;-46
2022/04/08 02:54:42;;;;;;;2.80;1.27;;;;;20.70;98741.00;;;;2079293;28;20239;-46
2022/04/08 02:55:43;;;;;;;3.43;1.67;;;;;20.70;98748.00;;;;2078705;28;20271;-46
2022/04/08 02:56:43;;;;;;;4.40;1.43;;;;;20.70;98734.00;;;;2079335;28;20228;-47
2022/04/08 02:57:47;;;;;;;3.23;1.20;;;;;20.70;98740.00;;;;2079082;28;20237;-46
2022/04/08 02:58:48;;;;;;;3.40;1.30;;;;;20.70;98753.00;;;;2084374;28;20223;-47
2022/04/08 02:59:52;;;;;;;3.17;1.40;;;;;20.70;98747.00;;;;2087174;28;20291;-46
2022/04/08 03:00:53;;;;;;;2.42;1.10;;;;;20.70;98751.00;;;;2087333;28;20217;-46
2022/04/08 03:01:53;;;;;;;2.33;1.40;;;;;20.70;98742.00;;;;2087533;28;20213;-47
2022/04/08 03:02:53;;;;;;;2.10;1.20;;;;;20.70;98751.00;;;;2086563;28;20231;-47
2022/04/08 03:03:54;;;;;;;3.30;1.20;;;;;20.70;98741.00;;;;2087300;28;20287;-47
2022/04/08 03:04:54;;;;;;;2.13;1.07;;;;;20.70;98749.00;;;;2087575;28;20209;-46
2022/04/08 03:05:54;;;;;;;3.67;1.50;;;;;20.70;98754.00;;;;2086232;28;20219;-47
2022/04/08 03:06:55;;;;;;;2.70;1.40;;;;;20.70;98756.00;;;;2087349;28;20209;-46
2022/04/08 03:07:55;;;;;;;4.13;1.20;;;;;20.70;98756.00;;;;2087441;28;20228;-46
2022/04/08 03:08:56;;;;;;;2.30;1.30;;;;;20.70;98700.00;;;;2087155;28;20208;-46
2022/04/08 03:09:56;;;;;;;3.87;1.50;;;;;20.70;98758.00;;;;2087446;28;20386;-46
2022/04/08 03:10:57;;;;;;;3.43;1.40;;;;;20.70;98761.00;;;;2087437;28;20584;-46
2022/04/08 03:11:57;;;;;;;2.13;1.10;;;;;20.60;98750.00;;;;2087583;28;20763;-46
2022/04/08 03:12:57;;;;;;;2.37;1.30;;;;;20.60;98748.00;;;;2085696;28;20785;-45
2022/04/08 03:14:02;;;;;;;3.50;1.57;;;;;20.60;98752.00;;;;2087380;28;20584;-47
2022/04/08 03:15:03;;;;;;;2.42;1.00;;;;;20.60;98749.00;;;;2087274;28;20212;-46
2022/04/08 03:16:04;;;;;;;2.42;1.00;;;;;20.60;98756.00;;;;2086503;28;20252;-46
2022/04/08 03:17:04;;;;;;;4.10;1.60;;;;;20.60;98756.00;;;;2087197;28;20605;-46
2022/04/08 03:18:05;;;;;;;2.20;1.00;;;;;20.60;98755.00;;;;2087228;28;20673;-46
2022/04/08 03:19:06;;;;;;;2.15;1.20;;;;;20.60;98761.00;;;;2087152;28;20207;-46
2022/04/08 03:20:06;;;;;;;3.17;1.33;;;;;20.60;98756.00;;;;2087511;28;20219;-46
2022/04/08 03:21:07;;;;;;;3.53;1.20;;;;;20.60;98750.00;;;;2087390;28;20213;-47
2022/04/08 03:22:07;;;;;;;2.90;1.23;;;;;20.60;98753.00;;;;2087032;28;20213;-47
2022/04/08 03:23:07;;;;;;;3.23;1.20;;;;;20.60;98752.00;;;;2087456;28;20220;-46
2022/04/08 03:24:10;;;;;;;3.77;1.60;;;;;20.60;98760.00;;;;2087222;28;20240;-46
2022/04/08 03:25:10;;;;;;;3.60;1.60;;;;;20.60;98758.00;;;;2087372;28;20278;-46
2022/04/08 03:26:11;;;;;;;2.77;1.40;;;;;20.60;98754.00;;;;2086311;28;20312;-46
2022/04/08 03:27:11;;;;;;;2.80;1.00;;;;;20.60;98759.00;;;;2086939;28;20636;-46
2022/04/08 03:28:12;;;;;;;2.80;1.50;;;;;20.60;98761.00;;;;2086613;28;20209;-46
2022/04/08 03:29:12;;;;;;;3.07;1.10;;;;;20.60;98759.00;;;;2087435;28;20260;-46
2022/04/08 03:30:12;;;;;;;3.60;1.10;;;;;20.60;98756.00;;;;2086523;28;20235;-46
2022/04/08 03:31:13;;;;;;;3.30;1.20;;;;;20.60;98753.00;;;;2086873;28;20217;-46
2022/04/08 03:32:13;;;;;;;3.67;1.40;;;;;20.60;98754.00;;;;2087332;28;20240;-46
2022/04/08 03:33:13;;;;;;;2.60;1.33;;;;;20.60;98769.00;;;;2086792;28;20228;-48
2022/04/08 03:34:14;;;;;;;2.93;1.30;;;;;20.60;98761.00;;;;2087131;28;20216;-46
2022/04/08 03:35:15;;;;;;;2.70;1.40;;;;;20.60;98751.00;;;;2087256;28;20308;-46
2022/04/08 03:36:15;;;;;;;4.37;1.40;;;;;20.60;98757.00;;;;2086409;28;20335;-46
2022/04/08 03:37:17;;;;;;;3.67;1.40;;;;;20.60;98759.00;;;;2087134;28;20505;-46
2022/04/08 03:38:18;;;;;;;3.08;1.30;;;;;20.60;98759.00;;;;2086872;28;20220;-48
2022/04/08 03:39:20;;;;;;;2.63;1.17;;;;;20.60;98754.00;;;;2086985;28;20209;-46
2022/04/08 03:40:20;;;;;;;3.17;1.20;;;;;20.60;98769.00;;;;2087279;28;20217;-46
2022/04/08 03:41:20;;;;;;;2.40;1.20;;;;;20.60;98763.00;;;;2087109;28;20213;-47
2022/04/08 03:42:21;;;;;;;2.83;1.17;;;;;20.60;98764.00;;;;2087130;28;20213;-46
2022/04/08 03:43:22;;;;;;;3.30;1.30;;;;;20.60;98770.00;;;;2087260;28;20223;-46
2022/04/08 03:44:22;;;;;;;3.23;1.27;;;;;20.60;98765.00;;;;2081333;28;20542;-46
2022/04/08 03:45:24;;;;;;;3.60;1.50;;;;;20.60;98697.00;;;;2078584;28;20240;-46
2022/04/08 03:46:25;;;;;;;3.30;1.35;;;;;20.60;98769.00;;;;2078874;28;20217;-46
2022/04/08 03:47:25;;;;;;;3.10;1.40;;;;;20.60;98770.00;;;;2077221;28;20729;-46
2022/04/08 03:48:25;;;;;;;2.70;1.43;;;;;20.60;98776.00;;;;2078986;28;20304;-47
2022/04/08 03:49:26;;;;;;;2.87;0.90;;;;;20.60;98770.00;;;;2078863;28;20217;-46
2022/04/08 03:50:27;;;;;;;3.05;1.70;;;;;20.60;98775.00;;;;2078779;28;20800;-48
2022/04/08 03:51:27;;;;;;;2.30;1.70;;;;;20.60;98778.00;;;;2079008;28;20259;-47
2022/04/08 03:52:32;;;;;;;3.57;1.40;;;;;20.60;98779.00;;;;2078880;28;20241;-46
2022/04/08 03:53:32;;;;;;;3.33;1.48;;;;;20.60;98784.00;;;;2070470;28;20221;-46
2022/04/08 03:54:32;;;;;;;2.60;1.23;;;;;20.60;98779.00;;;;2070690;28;20675;-46
2022/04/08 03:55:33;;;;;;;2.70;1.30;;;;;20.60;98792.00;;;;2071335;28;20213;-46
2022/04/08 03:56:34;;;;;;;3.57;1.50;;;;;20.50;98786.00;;;;2078733;28;20261;-46
2022/04/08 03:57:34;;;;;;;3.20;1.27;;;;;20.50;98796.00;;;;2078461;28;20305;-46
2022/04/08 03:58:34;;;;;;;1.97;1.00;;;;;20.50;98796.00;;;;2079025;28;20460;-46
2022/04/08 03:59:35;;;;;;;2.90;1.10;;;;;20.50;98793.00;;;;2078971;28;20221;-46
2022/04/08 04:00:37;;;;;;;4.27;1.60;;;;;20.50;98801.00;;;;2078877;28;20237;-46
2022/04/08 04:01:37;;;;;;;3.58;1.45;;;;;20.50;98803.00;;;;2078559;28;20218;-47
2022/04/08 04:02:37;;;;;;;3.60;1.60;;;;;20.50;98810.00;;;;2078730;28;20214;-46
2022/04/08 04:03:37;;;;;;;3.47;1.23;;;;;20.50;98814.00;;;;2078962;28;20214;-47
2022/04/08 04:04:38;;;;;;;3.27;1.30;;;;;20.50;98803.00;;;;2078750;28;20213;-47
2022/04/08 04:05:38;;;;;;;2.73;1.40;;;;;20.50;98813.00;;;;2079019;28;20825;-46
2022/04/08 04:06:39;;;;;;;3.73;1.20;;;;;20.50;98811.00;;;;2085961;28;20266;-46
2022/04/08 04:07:39;;;;;;;2.40;1.27;;;;;20.50;98808.00;;;;2078258;28;20210;-47
2022/04/08 04:08:39;;;;;;;3.70;1.17;;;;;20.50;98815.00;;;;2078982;28;20314;-46
2022/04/08 04:09:40;;;;;;;3.43;1.03;;;;;20.50;98815.00;;;;2078818;28;20222;-46
2022/04/08 04:10:40;;;;;;;3.20;1.13;;;;;20.50;98813.00;;;;2078723;28;20213;-46
2022/04/08 04:11:40;;;;;;;3.23;1.10;;;;;20.50;98814.00;;;;2077998;28;20218;-46
2022/04/08 04:12:42;;;;;;;2.90;1.10;;;;;20.50;98813.00;;;;2078841;28;20296;-46
2022/04/08 04:13:42;;;;;;;3.38;1.73;;;;;20.50;98809.00;;;;2072732;28;20202;-46
2022/04/08 04:14:43;;;;;;;2.30;1.23;;;;;20.50;98808.00;;;;2070628;28;20603;-46
2022/04/08 04:15:43;;;;;;;4.10;1.30;;;;;20.50;98814.00;;;;2069635;28;20687;-46
2022/04/08 04:16:44;;;;;;;5.40;1.70;;;;;20.50;98817.00;;;;2071867;28;20214;-46
2022/04/08 04:17:44;;;;;;;2.10;0.83;;;;;20.50;98824.00;;;;2078538;28;20582;-46
2022/04/08 04:18:44;;;;;;;4.07;1.20;;;;;20.50;98811.00;;;;2078797;28;20275;-46
2022/04/08 04:19:45;;;;;;;4.00;1.37;;;;;20.50;98817.00;;;;2078510;28;20218;-46
2022/04/08 04:20:45;;;;;;;4.10;1.50;;;;;20.50;98809.00;;;;2078804;28;20206;-46
2022/04/08 04:21:47;;;;;;;3.10;1.27;;;;;20.50;98817.00;;;;2078690;28;20206;-46
2022/04/08 04:22:48;;;;;;;2.70;1.15;;;;;20.50;98824.00;;;;2078730;28;20214;-46
2022/04/08 04:23:48;;;;;;;4.07;1.30;;;;;20.50;98815.00;;;;2078197;28;20206;-46
2022/04/08 04:24:48;;;;;;;3.00;1.27;;;;;20.50;98820.00;;;;2078765;28;20217;-46
2022/04/08 04:25:49;;;;;;;2.10;1.10;;;;;20.50;98816.00;;;;2078026;28;20516;-46
2022/04/08 04:26:49;;;;;;;3.70;1.20;;;;;20.50;98825.00;;;;2078573;28;20287;-47
2022/04/08 04:27:49;;;;;;;2.90;1.00;;;;;20.50;98821.00;;;;2078204;28;20356;-46
2022/04/08 04:28:50;;;;;;;3.27;1.30;;;;;20.50;98816.00;;;;2078709;28;20209;-46
2022/04/08 04:29:50;;;;;;;2.97;1.13;;;;;20.50;98816.00;;;;2077640;28;20218;-46
2022/04/08 04:30:53;;;;;;;2.40;1.20;;;;;20.40;98819.00;;;;2077896;28;20309;-46
2022/04/08 04:31:55;;;;;;;2.20;1.00;;;;;20.40;98820.00;;;;2078547;28;20221;-46
2022/04/08 04:32:56;;;;;;;1.85;1.00;;;;;20.50;98818.00;;;;2078660;28;20217;-46
2022/04/08 04:33:56;;;;;;;2.50;1.10;;;;;20.30;98812.00;;;;2078665;28;20946;-46
2022/04/08 04:34:57;;;;;;;2.50;1.10;;;;;20.40;98821.00;;;;2085390;28;20224;-46
2022/04/08 04:35:57;;;;;;;2.60;0.90;;;;;20.40;98822.00;;;;2078777;28;20221;-46
2022/04/08 04:36:57;;;;;;;2.33;1.27;;;;;20.40;98814.00;;;;2078619;28;20590;-46
2022/04/08 04:37:58;;;;;;;3.53;1.20;;;;;20.40;98811.00;;;;2077916;28;20217;-46
2022/04/08 04:38:58;;;;;;;2.67;1.03;;;;;20.40;98824.00;;;;2078635;28;20220;-46
2022/04/08 04:39:58;;;;;;;3.40;1.40;;;;;20.40;98826.00;;;;2078553;28;20213;-46
2022/04/08 04:40:59;;;;;;;4.50;1.33;;;;;20.50;98826.00;;;;2078495;28;20233;-46
2022/04/08 04:41:59;;;;;;;2.40;0.90;;;;;20.50;98826.00;;;;2085492;28;20244;-46
2022/04/08 04:43:00;;;;;;;2.70;1.03;;;;;20.40;98831.00;;;;2078928;28;20220;-46
2022/04/08 04:44:01;;;;;;;2.60;1.30;;;;;20.40;98821.00;;;;2078121;28;20209;-46
2022/04/08 04:45:01;;;;;;;1.90;1.00;;;;;20.40;98827.00;;;;2069814;28;20476;-46
2022/04/08 04:46:03;;;;;;;2.33;1.23;;;;;20.40;98823.00;;;;2069108;28;20540;-47
2022/04/08 04:47:04;;;;;;;3.55;1.40;;;;;20.40;98824.00;;;;2069976;28;20214;-46
2022/04/08 04:48:05;;;;;;;4.00;1.40;;;;;20.40;98828.00;;;;2069988;28;20643;-46
2022/04/08 04:49:06;;;;;;;3.92;1.48;;;;;20.40;98813.00;;;;2069387;28;20324;-46
2022/04/08 04:50:06;;;;;;;2.83;1.47;;;;;20.40;98820.00;;;;2069762;28;20218;-46
2022/04/08 04:51:06;;;;;;;3.67;1.60;;;;;20.40;98820.00;;;;2070369;28;20222;-46
2022/04/08 04:52:07;;;;;;;3.77;1.33;;;;;20.40;98823.00;;;;2070062;28;21011;-47
2022/04/08 04:53:07;;;;;;;2.33;1.30;;;;;20.40;98826.00;;;;2078508;28;20674;-46
2022/04/08 04:54:08;;;;;;;3.20;1.50;;;;;20.40;98818.00;;;;2078653;28;20740;-47
2022/04/08 04:55:08;;;;;;;3.00;1.50;;;;;20.40;98826.00;;;;2077571;28;20780;-52
2022/04/08 04:56:09;;;;;;;4.33;2.03;;;;;20.30;98826.00;;;;2077532;28;20232;-49
2022/04/08 04:57:09;;;;;;;3.47;1.43;;;;;20.30;98822.00;;;;2084881;28;20227;-47
2022/04/08 04:58:09;;;;;;;3.73;1.23;;;;;20.30;98826.00;;;;2086539;28;20874;-47
2022/04/08 04:59:10;;;;;;;3.33;1.50;;;;;20.30;98820.00;;;;2086885;28;20216;-47
2022/04/08 05:00:11;;;;;;;4.90;1.60;;;;;20.40;98828.00;;;;2086515;28;20221;-47
2022/04/08 05:01:11;;;;;;;3.33;1.10;;;;;20.40;98827.00;;;;2086596;28;20462;-47
2022/04/08 05:02:12;;;;;;;3.73;1.50;;;;;20.40;98827.00;;;;2086854;28;20536;-46
2022/04/08 05:03:13;;;;;;;3.90;1.53;;;;;20.40;98830.00;;;;2086712;28;20223;-46
2022/04/08 05:04:14;;;;;;;2.45;1.15;;;;;20.40;98836.00;;;;2084850;28;20219;-47